sensor_id;sensor_type;location;lat;lon;timestamp;pressure;altitude;pressure_sealevel;temperature;humidity
26775;BME280;14362;51.902;7.626;2023-01-30T00:01:19;101067.38;;;3.46;100.00
26775;BME280;14362;51.902;7.626;2023-01-30T00:05:22;101079.50;;;3.50;100.00
26775;BME280;14362;51.902;7.626;2023-01-30T00:09:24;101074.84;;;3.50;100.00
26775;BME280;14362;51.902;7.626;2023-01-30T00:13:26;101062.75;;;3.56;100.00
26775;BME280;14362;51.902;7.626;2023-01-30T00:17:27;101049.78;;;3.57;100.00
26775;BME280;14362;51.902;7.626;2023-01-30T00:21:30;101039.06;;;3.65;100.00
26775;BME280;14362;51.902;7.626;2023-01-30T00:25:31;101029.66;;;3.61;100.00
26775;BME280;14362;51.902;7.626;2023-01-30T00:29:33;101020.84;;;3.64;100.00
26775;BME280;14362;51.902;7.626;2023-01-30T00:33:36;101014.53;;;3.64;100.00
26775;BME280;14362;51.902;7.626;2023-01-30T00:37:39;100999.94;;;3.68;100.00
26775;BME280;14362;51.902;7.626;2023-01-30T00:41:40;100999.09;;;3.73;100.00
26775;BME280;14362;51.902;7.626;2023-01-30T00:45:59;100995.00;;;3.75;100.00
26775;BME280;14362;51.902;7.626;2023-01-30T00:50:20;100987.81;;;3.79;100.00
26775;BME280;14362;51.902;7.626;2023-01-30T00:54:22;100959.69;;;3.87;100.00
26775;BME280;14362;51.902;7.626;2023-01-30T00:58:24;100951.16;;;3.84;100.00
26775;BME280;14362;51.902;7.626;2023-01-30T01:02:25;100940.94;;;3.89;100.00
26775;BME280;14362;51.902;7.626;2023-01-30T01:06:27;100934.59;;;3.99;100.00
26775;BME280;14362;51.902;7.626;2023-01-30T01:10:30;100919.72;;;4.00;100.00
26775;BME280;14362;51.902;7.626;2023-01-30T01:14:32;100911.44;;;4.00;100.00
26775;BME280;14362;51.902;7.626;2023-01-30T01:18:33;100916.13;;;3.99;100.00
26775;BME280;14362;51.902;7.626;2023-01-30T01:22:36;100910.59;;;3.99;100.00
26775;BME280;14362;51.902;7.626;2023-01-30T01:26:39;100900.13;;;4.06;100.00
26775;BME280;14362;51.902;7.626;2023-01-30T01:30:40;100877.50;;;4.04;100.00
26775;BME280;14362;51.902;7.626;2023-01-30T01:34:42;100875.31;;;4.06;100.00
26775;BME280;14362;51.902;7.626;2023-01-30T01:38:43;100878.06;;;4.11;100.00
26775;BME280;14362;51.902;7.626;2023-01-30T01:42:46;100882.19;;;4.08;100.00
26775;BME280;14362;51.902;7.626;2023-01-30T01:46:50;100886.34;;;4.11;100.00
26775;BME280;14362;51.902;7.626;2023-01-30T01:50:55;100879.97;;;4.10;100.00
26775;BME280;14362;51.902;7.626;2023-01-30T01:54:58;100867.59;;;4.13;100.00
26775;BME280;14362;51.902;7.626;2023-01-30T01:59:07;100843.31;;;4.10;100.00
26775;BME280;14362;51.902;7.626;2023-01-30T02:03:13;100842.47;;;4.09;100.00
26775;BME280;14362;51.902;7.626;2023-01-30T02:07:17;100843.56;;;4.18;100.00
26775;BME280;14362;51.902;7.626;2023-01-30T02:11:25;100836.38;;;4.22;100.00
26775;BME280;14362;51.902;7.626;2023-01-30T02:15:32;100844.66;;;4.22;100.00
26775;BME280;14362;51.902;7.626;2023-01-30T02:19:41;100826.41;;;4.26;100.00
26775;BME280;14362;51.902;7.626;2023-01-30T02:24:08;100824.75;;;4.30;100.00
26775;BME280;14362;51.902;7.626;2023-01-30T02:33:10;100816.47;;;4.30;100.00
26775;BME280;14362;51.902;7.626;2023-01-30T02:37:26;100807.91;;;4.37;100.00
26775;BME280;14362;51.902;7.626;2023-01-30T02:41:34;100794.69;;;4.34;100.00
26775;BME280;14362;51.902;7.626;2023-01-30T02:45:41;100781.94;;;4.43;100.00
26775;BME280;14362;51.902;7.626;2023-01-30T02:49:50;100772.25;;;4.50;100.00
26775;BME280;14362;51.902;7.626;2023-01-30T02:53:54;100772.53;;;4.49;100.00
26775;BME280;14362;51.902;7.626;2023-01-30T02:57:55;100764.47;;;4.62;100.00
26775;BME280;14362;51.902;7.626;2023-01-30T03:02:22;100758.91;;;4.67;100.00
26775;BME280;14362;51.902;7.626;2023-01-30T03:06:36;100763.53;;;4.77;100.00
26775;BME280;14362;51.902;7.626;2023-01-30T03:10:47;100750.28;;;4.79;100.00
26775;BME280;14362;51.902;7.626;2023-01-30T03:14:54;100743.38;;;4.81;100.00
26775;BME280;14362;51.902;7.626;2023-01-30T03:18:58;100746.06;;;4.86;100.00
26775;BME280;14362;51.902;7.626;2023-01-30T03:23:01;100744.09;;;4.92;100.00
26775;BME280;14362;51.902;7.626;2023-01-30T03:27:06;100739.59;;;5.05;100.00
26775;BME280;14362;51.902;7.626;2023-01-30T03:31:09;100727.47;;;5.02;100.00
26775;BME280;14362;51.902;7.626;2023-01-30T03:35:10;100714.72;;;5.05;100.00
26775;BME280;14362;51.902;7.626;2023-01-30T03:39:13;100717.50;;;5.05;100.00
26775;BME280;14362;51.902;7.626;2023-01-30T03:43:15;100695.31;;;5.10;100.00
26775;BME280;14362;51.902;7.626;2023-01-30T03:47:16;100698.69;;;5.07;100.00
26775;BME280;14362;51.902;7.626;2023-01-30T03:51:18;100697.28;;;5.10;100.00
26775;BME280;14362;51.902;7.626;2023-01-30T03:55:20;100704.16;;;5.12;100.00
26775;BME280;14362;51.902;7.626;2023-01-30T03:59:22;100693.09;;;5.12;100.00
26775;BME280;14362;51.902;7.626;2023-01-30T04:03:23;100689.72;;;5.20;100.00
26775;BME280;14362;51.902;7.626;2023-01-30T04:07:27;100682.78;;;5.23;100.00
26775;BME280;14362;51.902;7.626;2023-01-30T04:11:30;100673.91;;;5.26;100.00
26775;BME280;14362;51.902;7.626;2023-01-30T04:15:31;100677.25;;;5.23;100.00
26775;BME280;14362;51.902;7.626;2023-01-30T04:19:33;100667.59;;;5.25;100.00
26775;BME280;14362;51.902;7.626;2023-01-30T04:23:34;100679.97;;;5.28;100.00
26775;BME280;14362;51.902;7.626;2023-01-30T04:27:37;100686.03;;;5.30;100.00
26775;BME280;14362;51.902;7.626;2023-01-30T04:31:38;100689.09;;;5.28;100.00
26775;BME280;14362;51.902;7.626;2023-01-30T04:35:40;100674.47;;;5.28;100.00
26775;BME280;14362;51.902;7.626;2023-01-30T04:39:41;100668.31;;;5.36;100.00
26775;BME280;14362;51.902;7.626;2023-01-30T04:43:44;100670.22;;;5.35;100.00
26775;BME280;14362;51.902;7.626;2023-01-30T04:47:45;100653.06;;;5.38;100.00
26775;BME280;14362;51.902;7.626;2023-01-30T04:51:47;100664.63;;;5.45;100.00
26775;BME280;14362;51.902;7.626;2023-01-30T04:55:48;100658.28;;;5.40;100.00
26775;BME280;14362;51.902;7.626;2023-01-30T04:59:51;100647.09;;;5.55;100.00
26775;BME280;14362;51.902;7.626;2023-01-30T05:03:52;100649.91;;;5.50;100.00
26775;BME280;14362;51.902;7.626;2023-01-30T05:07:54;100643.53;;;5.49;100.00
26775;BME280;14362;51.902;7.626;2023-01-30T05:11:55;100641.38;;;5.46;100.00
26775;BME280;14362;51.902;7.626;2023-01-30T05:15:58;100636.44;;;5.43;100.00
26775;BME280;14362;51.902;7.626;2023-01-30T05:20:00;100637.22;;;5.49;100.00
26775;BME280;14362;51.902;7.626;2023-01-30T05:24:01;100627.84;;;5.45;100.00
26775;BME280;14362;51.902;7.626;2023-01-30T05:28:03;100627.75;;;5.55;100.00
26775;BME280;14362;51.902;7.626;2023-01-30T05:32:06;100645.16;;;5.55;100.00
26775;BME280;14362;51.902;7.626;2023-01-30T05:36:12;100641.25;;;5.56;100.00
26775;BME280;14362;51.902;7.626;2023-01-30T05:40:15;100640.69;;;5.59;100.00
26775;BME280;14362;51.902;7.626;2023-01-30T05:44:16;100636.28;;;5.58;100.00
26775;BME280;14362;51.902;7.626;2023-01-30T05:48:19;100633.31;;;5.73;100.00
26775;BME280;14362;51.902;7.626;2023-01-30T05:52:20;100625.91;;;5.69;100.00
26775;BME280;14362;51.902;7.626;2023-01-30T05:56:23;100634.22;;;5.69;100.00
26775;BME280;14362;51.902;7.626;2023-01-30T06:00:25;100632.72;;;5.81;100.00
26775;BME280;14362;51.902;7.626;2023-01-30T06:04:28;100625.00;;;5.78;100.00
26775;BME280;14362;51.902;7.626;2023-01-30T06:08:29;100630.75;;;5.82;100.00
26775;BME280;14362;51.902;7.626;2023-01-30T06:12:31;100635.09;;;5.88;100.00
26775;BME280;14362;51.902;7.626;2023-01-30T06:16:32;100614.91;;;5.87;100.00
26775;BME280;14362;51.902;7.626;2023-01-30T06:20:35;100635.69;;;5.85;100.00
26775;BME280;14362;51.902;7.626;2023-01-30T06:24:37;100629.22;;;5.94;100.00
26775;BME280;14362;51.902;7.626;2023-01-30T06:28:38;100628.41;;;5.94;100.00
26775;BME280;14362;51.902;7.626;2023-01-30T06:32:40;100632.28;;;5.93;100.00
26775;BME280;14362;51.902;7.626;2023-01-30T06:36:43;100703.53;;;6.01;100.00
26775;BME280;14362;51.902;7.626;2023-01-30T06:40:45;100698.09;;;5.10;100.00
26775;BME280;14362;51.902;7.626;2023-01-30T06:44:47;100678.47;;;4.79;100.00
26775;BME280;14362;51.902;7.626;2023-01-30T06:48:48;100708.63;;;4.75;100.00
26775;BME280;14362;51.902;7.626;2023-01-30T06:52:52;100708.78;;;4.89;100.00
26775;BME280;14362;51.902;7.626;2023-01-30T06:56:54;100683.28;;;5.02;100.00
26775;BME280;14362;51.902;7.626;2023-01-30T07:00:55;100699.88;;;4.97;100.00
26775;BME280;14362;51.902;7.626;2023-01-30T07:04:56;100697.31;;;5.05;100.00
26775;BME280;14362;51.902;7.626;2023-01-30T07:08:59;100689.56;;;5.07;100.00
26775;BME280;14362;51.902;7.626;2023-01-30T07:13:01;100690.06;;;5.14;100.00
26775;BME280;14362;51.902;7.626;2023-01-30T07:17:02;100702.22;;;5.13;100.00
26775;BME280;14362;51.902;7.626;2023-01-30T07:21:04;100706.34;;;5.15;100.00
26775;BME280;14362;51.902;7.626;2023-01-30T07:25:07;100709.59;;;5.22;100.00
26775;BME280;14362;51.902;7.626;2023-01-30T07:29:09;100716.44;;;5.30;100.00
26775;BME280;14362;51.902;7.626;2023-01-30T07:33:10;100722.22;;;5.33;100.00
26775;BME280;14362;51.902;7.626;2023-01-30T07:37:11;100728.84;;;5.32;100.00
26775;BME280;14362;51.902;7.626;2023-01-30T07:41:14;100738.19;;;5.41;100.00
26775;BME280;14362;51.902;7.626;2023-01-30T07:45:16;100729.88;;;5.41;100.00
26775;BME280;14362;51.902;7.626;2023-01-30T07:49:17;100729.00;;;5.46;100.00
26775;BME280;14362;51.902;7.626;2023-01-30T07:53:18;100735.31;;;5.51;100.00
26775;BME280;14362;51.902;7.626;2023-01-30T07:57:21;100743.84;;;5.55;100.00
26775;BME280;14362;51.902;7.626;2023-01-30T08:01:23;100757.75;;;5.73;100.00
26775;BME280;14362;51.902;7.626;2023-01-30T08:05:24;100744.78;;;5.74;100.00
26775;BME280;14362;51.902;7.626;2023-01-30T08:09:25;100761.09;;;5.70;100.00
26775;BME280;14362;51.902;7.626;2023-01-30T08:13:28;100764.41;;;5.72;100.00
26775;BME280;14362;51.902;7.626;2023-01-30T08:17:30;100755.22;;;5.77;100.00
26775;BME280;14362;51.902;7.626;2023-01-30T08:21:31;100754.31;;;5.86;100.00
26775;BME280;14362;51.902;7.626;2023-01-30T08:25:33;100751.09;;;5.79;100.00
26775;BME280;14362;51.902;7.626;2023-01-30T08:29:36;100763.41;;;5.92;100.00
26775;BME280;14362;51.902;7.626;2023-01-30T08:33:38;100761.47;;;5.92;100.00
26775;BME280;14362;51.902;7.626;2023-01-30T08:37:40;100773.28;;;5.98;100.00
26775;BME280;14362;51.902;7.626;2023-01-30T08:41:41;100770.25;;;5.99;100.00
26775;BME280;14362;51.902;7.626;2023-01-30T08:45:44;100766.34;;;6.00;100.00
26775;BME280;14362;51.902;7.626;2023-01-30T08:49:45;100776.00;;;6.03;100.00
26775;BME280;14362;51.902;7.626;2023-01-30T08:53:47;100792.38;;;5.99;100.00
26775;BME280;14362;51.902;7.626;2023-01-30T08:57:48;100778.47;;;6.04;100.00
26775;BME280;14362;51.902;7.626;2023-01-30T09:01:51;100774.06;;;6.03;100.00
26775;BME280;14362;51.902;7.626;2023-01-30T09:05:53;100781.22;;;6.04;100.00
26775;BME280;14362;51.902;7.626;2023-01-30T09:09:56;100781.44;;;6.12;100.00
26775;BME280;14362;51.902;7.626;2023-01-30T09:13:57;100765.00;;;6.21;100.00
26775;BME280;14362;51.902;7.626;2023-01-30T09:18:00;100757.91;;;6.33;100.00
26775;BME280;14362;51.902;7.626;2023-01-30T09:22:01;100768.81;;;6.25;100.00
26775;BME280;14362;51.902;7.626;2023-01-30T09:26:03;100757.56;;;6.16;100.00
26775;BME280;14362;51.902;7.626;2023-01-30T09:30:07;100765.72;;;6.31;100.00
26775;BME280;14362;51.902;7.626;2023-01-30T09:34:10;100773.19;;;6.31;100.00
26775;BME280;14362;51.902;7.626;2023-01-30T09:38:11;100780.06;;;6.33;100.00
26775;BME280;14362;51.902;7.626;2023-01-30T09:42:31;100781.44;;;6.36;100.00
26775;BME280;14362;51.902;7.626;2023-01-30T09:46:42;100797.78;;;6.32;100.00
26775;BME280;14362;51.902;7.626;2023-01-30T09:51:10;100789.41;;;6.37;100.00
26775;BME280;14362;51.902;7.626;2023-01-30T09:55:16;100786.00;;;6.45;100.00
26775;BME280;14362;51.902;7.626;2023-01-30T09:59:23;100793.06;;;6.56;100.00
26775;BME280;14362;51.902;7.626;2023-01-30T10:03:28;100792.03;;;6.71;100.00
26775;BME280;14362;51.902;7.626;2023-01-30T10:07:44;100806.78;;;6.85;100.00
26775;BME280;14362;51.902;7.626;2023-01-30T10:12:00;100810.53;;;6.75;100.00
26775;BME280;14362;51.902;7.626;2023-01-30T10:16:10;100799.69;;;6.79;100.00
26775;BME280;14362;51.902;7.626;2023-01-30T10:20:24;100821.53;;;6.80;100.00
26775;BME280;14362;51.902;7.626;2023-01-30T10:24:39;100803.84;;;6.58;100.00
26775;BME280;14362;51.902;7.626;2023-01-30T10:28:53;100817.09;;;6.37;100.00
26775;BME280;14362;51.902;7.626;2023-01-30T10:33:00;100799.31;;;6.43;100.00
26775;BME280;14362;51.902;7.626;2023-01-30T10:37:05;100782.13;;;6.46;100.00
26775;BME280;14362;51.902;7.626;2023-01-30T10:41:19;100794.94;;;6.61;100.00
26775;BME280;14362;51.902;7.626;2023-01-30T10:45:27;100799.44;;;6.75;100.00
26775;BME280;14362;51.902;7.626;2023-01-30T10:49:39;100806.78;;;6.85;100.00
26775;BME280;14362;51.902;7.626;2023-01-30T10:53:44;100797.25;;;6.72;100.00
26775;BME280;14362;51.902;7.626;2023-01-30T10:57:54;100800.28;;;6.76;100.00
26775;BME280;14362;51.902;7.626;2023-01-30T11:02:03;100806.19;;;6.69;100.00
26775;BME280;14362;51.902;7.626;2023-01-30T11:06:11;100814.78;;;6.68;100.00
26775;BME280;14362;51.902;7.626;2023-01-30T11:10:15;100821.97;;;6.69;100.00
26775;BME280;14362;51.902;7.626;2023-01-30T11:14:19;100816.59;;;6.77;100.00
26775;BME280;14362;51.902;7.626;2023-01-30T11:18:21;100819.53;;;6.86;100.00
26775;BME280;14362;51.902;7.626;2023-01-30T11:22:24;100827.03;;;6.85;100.00
26775;BME280;14362;51.902;7.626;2023-01-30T11:26:29;100831.88;;;6.93;100.00
26775;BME280;14362;51.902;7.626;2023-01-30T11:30:35;100837.69;;;6.97;100.00
26775;BME280;14362;51.902;7.626;2023-01-30T11:34:42;100821.34;;;6.95;100.00
26775;BME280;14362;51.902;7.626;2023-01-30T11:38:54;100810.72;;;7.02;100.00
26775;BME280;14362;51.902;7.626;2023-01-30T11:43:03;100818.78;;;7.17;100.00
26775;BME280;14362;51.902;7.626;2023-01-30T11:47:08;100812.44;;;7.16;100.00
26775;BME280;14362;51.902;7.626;2023-01-30T11:51:09;100820.66;;;7.21;100.00
26775;BME280;14362;51.902;7.626;2023-01-30T11:55:13;100847.25;;;7.22;100.00
26775;BME280;14362;51.902;7.626;2023-01-30T11:59:22;100823.28;;;7.31;100.00
26775;BME280;14362;51.902;7.626;2023-01-30T12:03:26;100828.31;;;7.29;100.00
26775;BME280;14362;51.902;7.626;2023-01-30T12:07:29;100809.13;;;7.33;100.00
26775;BME280;14362;51.902;7.626;2023-01-30T12:11:41;100814.00;;;7.41;98.84
26775;BME280;14362;51.902;7.626;2023-01-30T12:15:44;100816.38;;;7.47;97.98
26775;BME280;14362;51.902;7.626;2023-01-30T12:19:55;100795.00;;;7.48;99.59
26775;BME280;14362;51.902;7.626;2023-01-30T12:24:06;100799.34;;;7.54;98.99
26775;BME280;14362;51.902;7.626;2023-01-30T12:28:19;100800.19;;;7.54;99.24
26775;BME280;14362;51.902;7.626;2023-01-30T12:32:25;100821.88;;;7.66;99.54
26775;BME280;14362;51.902;7.626;2023-01-30T12:36:40;100823.41;;;7.58;100.00
26775;BME280;14362;51.902;7.626;2023-01-30T12:40:49;100812.88;;;7.42;100.00
26775;BME280;14362;51.902;7.626;2023-01-30T12:45:03;100831.22;;;7.38;100.00
26775;BME280;14362;51.902;7.626;2023-01-30T12:49:24;100832.13;;;7.33;100.00
26775;BME280;14362;51.902;7.626;2023-01-30T12:53:38;100833.53;;;7.31;99.93
26775;BME280;14362;51.902;7.626;2023-01-30T12:57:47;100832.03;;;7.38;100.00
26775;BME280;14362;51.902;7.626;2023-01-30T13:02:01;100829.25;;;7.38;98.68
26775;BME280;14362;51.902;7.626;2023-01-30T13:06:24;100823.19;;;7.36;98.29
26775;BME280;14362;51.902;7.626;2023-01-30T13:10:36;100848.31;;;7.45;97.26
26775;BME280;14362;51.902;7.626;2023-01-30T13:14:43;100847.94;;;7.51;95.97
26775;BME280;14362;51.902;7.626;2023-01-30T13:18:49;100848.47;;;7.53;97.12
26775;BME280;14362;51.902;7.626;2023-01-30T13:22:55;100853.88;;;7.77;94.75
26775;BME280;14362;51.902;7.626;2023-01-30T13:27:00;100869.41;;;7.78;95.23
26775;BME280;14362;51.902;7.626;2023-01-30T13:31:09;100862.47;;;7.94;95.36
26775;BME280;14362;51.902;7.626;2023-01-30T13:35:16;100848.53;;;8.12;92.36
26775;BME280;14362;51.902;7.626;2023-01-30T13:39:26;100868.34;;;8.24;91.34
26775;BME280;14362;51.902;7.626;2023-01-30T13:43:35;100878.84;;;8.27;89.71
26775;BME280;14362;51.902;7.626;2023-01-30T13:47:47;100900.84;;;8.05;97.94
26775;BME280;14362;51.902;7.626;2023-01-30T13:51:56;100899.69;;;7.74;100.00
26775;BME280;14362;51.902;7.626;2023-01-30T13:56:06;100909.31;;;7.26;100.00
26775;BME280;14362;51.902;7.626;2023-01-30T14:00:26;100923.44;;;7.07;100.00
26775;BME280;14362;51.902;7.626;2023-01-30T14:04:49;100968.81;;;6.64;100.00
26775;BME280;14362;51.902;7.626;2023-01-30T14:08:52;100958.25;;;6.14;100.00
26775;BME280;14362;51.902;7.626;2023-01-30T14:13:04;100952.25;;;6.02;100.00
26775;BME280;14362;51.902;7.626;2023-01-30T14:17:10;100971.91;;;6.01;100.00
26775;BME280;14362;51.902;7.626;2023-01-30T14:21:13;100976.41;;;5.92;100.00
26775;BME280;14362;51.902;7.626;2023-01-30T14:25:34;100985.47;;;6.02;100.00
26775;BME280;14362;51.902;7.626;2023-01-30T14:29:53;100988.69;;;6.14;100.00
26775;BME280;14362;51.902;7.626;2023-01-30T14:33:55;101006.00;;;6.29;100.00
26775;BME280;14362;51.902;7.626;2023-01-30T14:38:12;100998.94;;;6.42;100.00
26775;BME280;14362;51.902;7.626;2023-01-30T14:42:19;101007.41;;;6.55;100.00
26775;BME280;14362;51.902;7.626;2023-01-30T14:46:43;101025.31;;;6.63;100.00
26775;BME280;14362;51.902;7.626;2023-01-30T14:50:50;101019.19;;;6.66;100.00
26775;BME280;14362;51.902;7.626;2023-01-30T14:55:15;101036.41;;;6.63;100.00
26775;BME280;14362;51.902;7.626;2023-01-30T14:59:22;101048.47;;;6.77;100.00
26775;BME280;14362;51.902;7.626;2023-01-30T15:03:24;101047.41;;;6.73;100.00
26775;BME280;14362;51.902;7.626;2023-01-30T15:07:30;101063.13;;;6.77;100.00
26775;BME280;14362;51.902;7.626;2023-01-30T15:11:33;101068.34;;;6.84;100.00
26775;BME280;14362;51.902;7.626;2023-01-30T15:15:40;101066.41;;;6.84;100.00
26775;BME280;14362;51.902;7.626;2023-01-30T15:20:01;101071.03;;;6.94;100.00
26775;BME280;14362;51.902;7.626;2023-01-30T15:24:29;101084.88;;;6.94;100.00
26775;BME280;14362;51.902;7.626;2023-01-30T15:28:44;101098.19;;;6.92;100.00
26775;BME280;14362;51.902;7.626;2023-01-30T15:33:06;101100.44;;;6.90;100.00
26775;BME280;14362;51.902;7.626;2023-01-30T15:37:14;101095.44;;;6.92;100.00
26775;BME280;14362;51.902;7.626;2023-01-30T15:41:31;101103.69;;;6.97;100.00
26775;BME280;14362;51.902;7.626;2023-01-30T15:45:40;101108.63;;;7.00;100.00
26775;BME280;14362;51.902;7.626;2023-01-30T15:49:52;101117.13;;;7.08;100.00
26775;BME280;14362;51.902;7.626;2023-01-30T15:53:55;101133.28;;;7.01;100.00
26775;BME280;14362;51.902;7.626;2023-01-30T15:58:02;101146.28;;;7.06;100.00
26775;BME280;14362;51.902;7.626;2023-01-30T16:02:07;101154.03;;;7.04;100.00
26775;BME280;14362;51.902;7.626;2023-01-30T16:06:22;101155.16;;;7.03;100.00
26775;BME280;14362;51.902;7.626;2023-01-30T16:10:25;101173.50;;;6.99;100.00
26775;BME280;14362;51.902;7.626;2023-01-30T16:14:28;101188.53;;;6.93;100.00
26775;BME280;14362;51.902;7.626;2023-01-30T16:18:32;101192.09;;;6.93;100.00
26775;BME280;14362;51.902;7.626;2023-01-30T16:22:36;101196.00;;;6.92;100.00
26775;BME280;14362;51.902;7.626;2023-01-30T16:26:40;101214.63;;;6.82;100.00
26775;BME280;14362;51.902;7.626;2023-01-30T16:30:44;101233.47;;;6.80;100.00
26775;BME280;14362;51.902;7.626;2023-01-30T16:34:45;101251.75;;;6.86;100.00
26775;BME280;14362;51.902;7.626;2023-01-30T16:38:47;101255.63;;;6.85;100.00
26775;BME280;14362;51.902;7.626;2023-01-30T16:42:54;101257.03;;;6.82;100.00
26775;BME280;14362;51.902;7.626;2023-01-30T16:46:59;101261.50;;;6.78;100.00
26775;BME280;14362;51.902;7.626;2023-01-30T16:51:11;101271.69;;;6.83;100.00
26775;BME280;14362;51.902;7.626;2023-01-30T16:55:20;101279.19;;;6.82;100.00
26775;BME280;14362;51.902;7.626;2023-01-30T16:59:27;101280.63;;;6.75;100.00
26775;BME280;14362;51.902;7.626;2023-01-30T17:03:32;101287.84;;;6.71;100.00
26775;BME280;14362;51.902;7.626;2023-01-30T17:07:36;101297.53;;;6.73;100.00
26775;BME280;14362;51.902;7.626;2023-01-30T17:11:39;101305.28;;;6.76;100.00
26775;BME280;14362;51.902;7.626;2023-01-30T17:15:41;101305.00;;;6.78;100.00
26775;BME280;14362;51.902;7.626;2023-01-30T17:19:45;101307.25;;;6.66;100.00
26775;BME280;14362;51.902;7.626;2023-01-30T17:23:50;101310.03;;;6.66;100.00
26775;BME280;14362;51.902;7.626;2023-01-30T17:27:52;101320.31;;;6.60;100.00
26775;BME280;14362;51.902;7.626;2023-01-30T17:31:55;101332.50;;;6.64;100.00
26775;BME280;14362;51.902;7.626;2023-01-30T17:35:58;101341.06;;;6.63;100.00
26775;BME280;14362;51.902;7.626;2023-01-30T17:40:13;101343.28;;;6.61;100.00
26775;BME280;14362;51.902;7.626;2023-01-30T17:44:16;101346.34;;;6.59;100.00
26775;BME280;14362;51.902;7.626;2023-01-30T17:48:17;101354.97;;;6.53;100.00
26775;BME280;14362;51.902;7.626;2023-01-30T17:52:20;101352.78;;;6.45;100.00
26775;BME280;14362;51.902;7.626;2023-01-30T17:56:25;101360.81;;;6.41;100.00
26775;BME280;14362;51.902;7.626;2023-01-30T18:00:27;101362.47;;;6.42;100.00
26775;BME280;14362;51.902;7.626;2023-01-30T18:04:29;101361.63;;;6.42;100.00
26775;BME280;14362;51.902;7.626;2023-01-30T18:08:31;101371.09;;;6.41;100.00
26775;BME280;14362;51.902;7.626;2023-01-30T18:12:33;101379.06;;;6.52;100.00
26775;BME280;14362;51.902;7.626;2023-01-30T18:16:34;101386.28;;;6.48;100.00
26775;BME280;14362;51.902;7.626;2023-01-30T18:20:36;101384.31;;;6.54;100.00
26775;BME280;14362;51.902;7.626;2023-01-30T18:24:38;101381.81;;;6.52;100.00
26775;BME280;14362;51.902;7.626;2023-01-30T18:28:40;101385.69;;;6.56;100.00
26775;BME280;14362;51.902;7.626;2023-01-30T18:32:43;101389.59;;;6.50;100.00
26775;BME280;14362;51.902;7.626;2023-01-30T18:36:46;101408.13;;;6.55;100.00
26775;BME280;14362;51.902;7.626;2023-01-30T18:40:49;101408.13;;;6.55;100.00
26775;BME280;14362;51.902;7.626;2023-01-30T18:44:50;101423.09;;;6.59;100.00
26775;BME280;14362;51.902;7.626;2023-01-30T18:48:53;101413.13;;;6.53;100.00
26775;BME280;14362;51.902;7.626;2023-01-30T18:52:56;101412.88;;;6.39;100.00
26775;BME280;14362;51.902;7.626;2023-01-30T18:56:59;101427.31;;;6.26;100.00
26775;BME280;14362;51.902;7.626;2023-01-30T19:01:07;101437.00;;;6.24;100.00
26775;BME280;14362;51.902;7.626;2023-01-30T19:05:09;101441.41;;;6.25;100.00
26775;BME280;14362;51.902;7.626;2023-01-30T19:09:11;101444.75;;;6.12;100.00
26775;BME280;14362;51.902;7.626;2023-01-30T19:13:14;101450.31;;;6.17;100.00
26775;BME280;14362;51.902;7.626;2023-01-30T19:17:35;101459.72;;;6.16;100.00
26775;BME280;14362;51.902;7.626;2023-01-30T19:21:37;101460.25;;;6.13;100.00
26775;BME280;14362;51.902;7.626;2023-01-30T19:25:38;101461.09;;;6.08;100.00
26775;BME280;14362;51.902;7.626;2023-01-30T19:29:41;101469.66;;;6.07;100.00
26775;BME280;14362;51.902;7.626;2023-01-30T19:33:44;101473.28;;;6.03;100.00
26775;BME280;14362;51.902;7.626;2023-01-30T19:37:45;101475.50;;;5.91;100.00
26775;BME280;14362;51.902;7.626;2023-01-30T19:41:47;101485.16;;;5.83;100.00
26775;BME280;14362;51.902;7.626;2023-01-30T19:45:55;101497.31;;;5.87;100.00
26775;BME280;14362;51.902;7.626;2023-01-30T19:49:57;101505.34;;;5.79;100.00
26775;BME280;14362;51.902;7.626;2023-01-30T19:54:00;101503.94;;;5.76;100.00
26775;BME280;14362;51.902;7.626;2023-01-30T19:58:01;101510.06;;;5.78;100.00
26775;BME280;14362;51.902;7.626;2023-01-30T20:02:05;101521.34;;;5.67;100.00
26775;BME280;14362;51.902;7.626;2023-01-30T20:06:09;101520.78;;;5.65;100.00
26775;BME280;14362;51.902;7.626;2023-01-30T20:10:10;101523.53;;;5.55;100.00
26775;BME280;14362;51.902;7.626;2023-01-30T20:14:12;101534.56;;;5.50;100.00
26775;BME280;14362;51.902;7.626;2023-01-30T20:18:15;101542.00;;;5.39;100.00
26775;BME280;14362;51.902;7.626;2023-01-30T20:22:16;101544.47;;;5.36;100.00
26775;BME280;14362;51.902;7.626;2023-01-30T20:26:19;101547.50;;;5.34;100.00
26775;BME280;14362;51.902;7.626;2023-01-30T20:30:21;101546.66;;;5.29;100.00
26775;BME280;14362;51.902;7.626;2023-01-30T20:34:24;101549.41;;;5.29;100.00
26775;BME280;14362;51.902;7.626;2023-01-30T20:38:28;101560.16;;;5.20;100.00
26775;BME280;14362;51.902;7.626;2023-01-30T20:42:30;101565.66;;;5.15;100.00
26775;BME280;14362;51.902;7.626;2023-01-30T20:46:35;101577.56;;;5.16;100.00
26775;BME280;14362;51.902;7.626;2023-01-30T20:50:41;101569.81;;;5.18;100.00
26775;BME280;14362;51.902;7.626;2023-01-30T20:54:42;101585.06;;;5.25;100.00
26775;BME280;14362;51.902;7.626;2023-01-30T20:58:44;101582.84;;;5.27;100.00
26775;BME280;14362;51.902;7.626;2023-01-30T21:02:49;101591.19;;;5.37;100.00
26775;BME280;14362;51.902;7.626;2023-01-30T21:06:52;101597.22;;;5.29;100.00
26775;BME280;14362;51.902;7.626;2023-01-30T21:10:54;101592.00;;;5.38;100.00
26775;BME280;14362;51.902;7.626;2023-01-30T21:15:03;101595.88;;;5.32;100.00
26775;BME280;14362;51.902;7.626;2023-01-30T21:19:06;101603.84;;;5.23;100.00
26775;BME280;14362;51.902;7.626;2023-01-30T21:23:09;101613.19;;;5.17;100.00
26775;BME280;14362;51.902;7.626;2023-01-30T21:27:11;101616.00;;;5.22;100.00